createdAt,value
2018-03-29T00:00:31.953Z,100.00
2018-03-29T00:01:39.266Z,100.00
2018-03-29T00:02:51.837Z,100.00
2018-03-29T00:03:59.889Z,100.00
2018-03-29T00:05:07.285Z,100.00
2018-03-29T00:06:14.902Z,100.00
2018-03-29T00:07:22.506Z,100.00
2018-03-29T00:08:32.482Z,100.00
2018-03-29T00:09:40.397Z,100.00
2018-03-29T00:10:49.675Z,100.00
2018-03-29T00:12:01.717Z,100.00
2018-03-29T00:13:08.836Z,100.00
2018-03-29T00:14:16.078Z,100.00
2018-03-29T00:15:23.465Z,100.00
2018-03-29T00:16:31.216Z,100.00
2018-03-29T00:17:39.327Z,100.00
2018-03-29T00:18:46.529Z,100.00
2018-03-29T00:19:53.616Z,100.00
2018-03-29T00:21:00.818Z,100.00
2018-03-29T00:22:08.517Z,100.00
2018-03-29T00:23:15.944Z,100.00
2018-03-29T00:24:22.438Z,100.00
2018-03-29T00:25:28.877Z,100.00
2018-03-29T00:26:40.068Z,100.00
2018-03-29T00:27:46.226Z,100.00
2018-03-29T00:28:52.622Z,100.00
2018-03-29T00:30:04.832Z,100.00
2018-03-29T00:31:11.344Z,100.00
2018-03-29T00:32:17.537Z,100.00
2018-03-29T00:33:24.441Z,100.00
2018-03-29T00:34:31.032Z,100.00
2018-03-29T00:35:37.721Z,100.00
2018-03-29T00:36:43.921Z,100.00
2018-03-29T00:37:55.533Z,99.82
2018-03-29T00:39:01.960Z,99.55
2018-03-29T00:40:07.981Z,98.91
2018-03-29T00:41:14.358Z,98.46
2018-03-29T00:42:20.778Z,97.45
2018-03-29T00:43:32.932Z,96.35
2018-03-29T00:44:39.192Z,94.51
2018-03-29T00:45:45.390Z,92.95
2018-03-29T00:46:51.894Z,91.95
2018-03-29T00:47:58.389Z,91.10
2018-03-29T00:49:04.548Z,90.87
2018-03-29T00:50:10.952Z,91.19
2018-03-29T00:51:20.521Z,90.58
2018-03-29T00:52:26.757Z,91.18
2018-03-29T00:53:44.552Z,91.28
2018-03-29T00:54:51.165Z,90.77
2018-03-29T00:55:57.333Z,90.86
2018-03-29T00:57:03.654Z,90.91
2018-03-29T00:58:09.932Z,90.38
2018-03-29T00:59:16.350Z,90.53
2018-03-29T01:00:22.522Z,90.42
2018-03-29T01:01:27.743Z,90.36
2018-03-29T01:02:33.923Z,89.99
2018-03-29T01:03:40.436Z,89.77
2018-03-29T01:04:46.621Z,89.48
2018-03-29T01:05:53.350Z,88.23
2018-03-29T01:06:59.840Z,87.86
2018-03-29T01:08:06.049Z,88.02
2018-03-29T01:09:12.372Z,87.18
2018-03-29T01:10:21.154Z,86.68
2018-03-29T01:11:29.458Z,86.39
2018-03-29T01:12:36.985Z,85.51
2018-03-29T01:13:43.678Z,86.53
2018-03-29T01:14:50.015Z,87.18
2018-03-29T01:15:56.599Z,86.45
2018-03-29T01:17:03.265Z,86.70
2018-03-29T01:18:09.515Z,86.97
2018-03-29T01:19:23.905Z,87.02
2018-03-29T01:20:39.493Z,86.93
2018-03-29T01:21:45.781Z,86.72
2018-03-29T01:22:53.378Z,86.78
2018-03-29T01:24:00.021Z,86.80
2018-03-29T01:25:06.282Z,86.15
2018-03-29T01:26:12.873Z,86.49
2018-03-29T01:27:18.902Z,86.97
2018-03-29T01:28:28.271Z,86.91
2018-03-29T01:29:34.468Z,86.29
2018-03-29T01:30:40.856Z,85.91
2018-03-29T01:31:47.633Z,86.04
2018-03-29T01:32:54.752Z,85.40
2018-03-29T01:34:01.015Z,85.88
2018-03-29T01:35:07.578Z,86.04
2018-03-29T01:36:13.997Z,86.35
2018-03-29T01:37:20.438Z,86.39
2018-03-29T01:38:26.715Z,86.54
2018-03-29T01:39:32.938Z,86.69
2018-03-29T01:40:39.460Z,86.49
2018-03-29T01:41:46.654Z,87.28
2018-03-29T01:42:52.895Z,86.20
2018-03-29T01:43:59.116Z,86.09
2018-03-29T01:45:06.502Z,85.94
2018-03-29T01:46:13.042Z,85.94
2018-03-29T01:47:19.428Z,86.27
2018-03-29T01:48:26.602Z,85.90
2018-03-29T01:49:33.684Z,86.12
2018-03-29T01:50:40.218Z,86.30
2018-03-29T01:51:46.707Z,86.33
2018-03-29T01:52:53.149Z,86.00
2018-03-29T01:54:06.012Z,85.95
2018-03-29T01:55:13.198Z,85.65
2018-03-29T01:56:19.914Z,85.84
2018-03-29T01:57:26.137Z,85.33
2018-03-29T01:58:32.739Z,85.79
2018-03-29T01:59:39.249Z,85.49
2018-03-29T02:00:45.613Z,84.56
2018-03-29T02:01:55.713Z,83.50
2018-03-29T02:03:02.315Z,82.87
2018-03-29T02:04:08.809Z,82.80
2018-03-29T02:05:15.324Z,83.09
2018-03-29T02:06:27.421Z,83.36
2018-03-29T02:07:33.667Z,83.03
2018-03-29T02:08:40.087Z,83.42
2018-03-29T02:09:46.388Z,82.81
2018-03-29T02:10:52.728Z,82.96
2018-03-29T02:11:58.967Z,83.24
2018-03-29T02:13:05.618Z,83.36
2018-03-29T02:14:11.856Z,83.12
2018-03-29T02:15:20.227Z,83.19
2018-03-29T02:16:27.784Z,83.53
2018-03-29T02:17:34.007Z,83.31
2018-03-29T02:18:40.253Z,83.36
2018-03-29T02:19:46.438Z,83.45
2018-03-29T02:20:57.850Z,83.53
2018-03-29T02:22:09.368Z,83.45
2018-03-29T02:23:16.540Z,83.47
2018-03-29T02:24:22.691Z,83.63
2018-03-29T02:25:36.436Z,83.84
2018-03-29T02:26:42.632Z,84.20
2018-03-29T02:27:48.902Z,84.43
2018-03-29T02:28:55.535Z,84.68
2018-03-29T02:30:01.759Z,84.15
2018-03-29T02:31:08.228Z,83.92
2018-03-29T02:32:14.242Z,84.60
2018-03-29T02:33:21.447Z,85.05
2018-03-29T02:34:27.407Z,85.05
2018-03-29T02:35:34.029Z,85.39
2018-03-29T02:36:49.907Z,85.44
2018-03-29T02:37:56.106Z,85.42
2018-03-29T02:39:02.297Z,85.57
2018-03-29T02:40:08.259Z,85.44
2018-03-29T02:41:14.241Z,85.21
2018-03-29T02:42:20.481Z,84.86
2018-03-29T02:43:26.714Z,84.69
2018-03-29T02:44:32.903Z,84.96
2018-03-29T02:45:39.149Z,84.94
2018-03-29T02:46:45.481Z,85.27
2018-03-29T02:47:51.937Z,85.18
2018-03-29T02:48:58.164Z,85.55
2018-03-29T02:50:03.998Z,85.41
2018-03-29T02:51:10.169Z,85.59
2018-03-29T02:52:16.557Z,85.66
2018-03-29T02:53:22.731Z,86.18
2018-03-29T02:54:29.440Z,86.46
2018-03-29T02:55:35.729Z,85.58
2018-03-29T02:56:44.801Z,84.49
2018-03-29T02:58:00.320Z,84.82
2018-03-29T02:59:06.776Z,85.63
2018-03-29T03:00:13.025Z,85.33
2018-03-29T03:01:19.250Z,84.94
2018-03-29T03:02:26.292Z,84.72
2018-03-29T03:03:32.485Z,84.61
2018-03-29T03:04:41.701Z,84.79
2018-03-29T03:05:47.932Z,85.04
2018-03-29T03:06:55.487Z,85.10
2018-03-29T03:08:01.735Z,84.72
2018-03-29T03:09:07.995Z,84.20
2018-03-29T03:10:14.334Z,84.27
2018-03-29T03:11:20.547Z,83.57
2018-03-29T03:12:26.810Z,83.28
2018-03-29T03:13:35.678Z,83.77
2018-03-29T03:14:41.884Z,83.52
2018-03-29T03:15:48.150Z,83.69
2018-03-29T03:16:54.500Z,84.08
2018-03-29T03:18:00.738Z,83.74
2018-03-29T03:19:06.938Z,83.23
2018-03-29T03:20:13.152Z,83.03
2018-03-29T03:21:19.379Z,82.58
2018-03-29T03:22:25.768Z,82.08
2018-03-29T03:23:32.816Z,81.61
2018-03-29T03:24:39.021Z,81.95
2018-03-29T03:25:50.453Z,81.66
2018-03-29T03:26:57.809Z,81.05
2018-03-29T03:28:04.065Z,80.90
2018-03-29T03:29:10.296Z,80.92
2018-03-29T03:30:16.535Z,80.63
2018-03-29T03:31:22.756Z,80.36
2018-03-29T03:32:28.976Z,80.78
2018-03-29T03:33:40.182Z,80.82
2018-03-29T03:34:47.015Z,81.36
2018-03-29T03:35:56.243Z,81.36
2018-03-29T03:37:02.458Z,81.20
2018-03-29T03:38:08.829Z,80.62
2018-03-29T03:39:15.049Z,79.85
2018-03-29T03:40:21.286Z,80.58
2018-03-29T03:41:27.473Z,80.21
2018-03-29T03:42:33.696Z,80.26
2018-03-29T03:43:39.898Z,80.59
2018-03-29T03:44:46.097Z,80.75
2018-03-29T03:45:52.553Z,81.27
2018-03-29T03:46:58.729Z,81.53
2018-03-29T03:48:04.944Z,82.03
2018-03-29T03:49:11.304Z,82.70
2018-03-29T03:50:20.937Z,82.90
2018-03-29T03:51:27.177Z,83.01
2018-03-29T03:52:33.401Z,83.09
2018-03-29T03:53:39.666Z,83.43
2018-03-29T03:54:50.866Z,83.57
2018-03-29T03:55:57.128Z,82.73
2018-03-29T03:57:03.317Z,82.18
2018-03-29T03:58:09.861Z,81.61
2018-03-29T03:59:16.310Z,81.57
2018-03-29T04:00:24.673Z,82.14
2018-03-29T04:01:30.817Z,81.94
2018-03-29T04:02:37.003Z,81.42
2018-03-29T04:03:44.269Z,81.25
2018-03-29T04:04:51.042Z,81.26
2018-03-29T04:05:57.244Z,80.69
2018-03-29T04:07:08.520Z,80.91
2018-03-29T04:08:14.736Z,80.77
2018-03-29T04:09:20.927Z,80.38
2018-03-29T04:10:27.436Z,80.06
2018-03-29T04:11:33.932Z,79.71
2018-03-29T04:12:40.489Z,79.45
2018-03-29T04:13:50.613Z,79.79
2018-03-29T04:15:04.737Z,79.00
2018-03-29T04:16:10.932Z,79.12
2018-03-29T04:17:17.416Z,79.00
2018-03-29T04:18:23.988Z,79.14
2018-03-29T04:19:30.173Z,78.85
2018-03-29T04:20:36.518Z,78.62
2018-03-29T04:21:42.725Z,78.30
2018-03-29T04:22:48.917Z,77.61
2018-03-29T04:23:55.162Z,77.15
2018-03-29T04:25:01.377Z,77.48
2018-03-29T04:26:07.738Z,77.26
2018-03-29T04:27:14.192Z,77.50
2018-03-29T04:28:20.018Z,77.41
2018-03-29T04:29:26.325Z,77.21
2018-03-29T04:30:36.960Z,77.62
2018-03-29T04:31:42.952Z,78.05
2018-03-29T04:32:49.188Z,77.36
2018-03-29T04:33:56.828Z,76.75
2018-03-29T04:35:03.277Z,76.52
2018-03-29T04:36:09.638Z,76.40
2018-03-29T04:37:23.607Z,77.08
2018-03-29T04:38:35.380Z,76.81
2018-03-29T04:39:41.619Z,76.96
2018-03-29T04:40:47.869Z,76.75
2018-03-29T04:41:58.007Z,76.68
2018-03-29T04:43:04.217Z,76.44
2018-03-29T04:44:14.352Z,76.29
2018-03-29T04:45:22.960Z,75.52
2018-03-29T04:46:29.215Z,75.84
2018-03-29T04:47:35.441Z,76.07
2018-03-29T04:48:41.653Z,76.00
2018-03-29T04:49:53.406Z,75.72
2018-03-29T04:51:00.413Z,76.17
2018-03-29T04:52:06.653Z,75.28
2018-03-29T04:53:12.882Z,75.66
2018-03-29T04:54:19.066Z,76.13
2018-03-29T04:55:25.340Z,75.73
2018-03-29T04:56:31.551Z,75.71
2018-03-29T04:57:37.797Z,75.80
2018-03-29T04:58:44.066Z,76.20
2018-03-29T04:59:52.400Z,76.33
2018-03-29T05:00:58.657Z,76.14
2018-03-29T05:02:14.706Z,76.62
2018-03-29T05:03:20.990Z,76.17
2018-03-29T05:04:27.226Z,76.31
2018-03-29T05:05:33.509Z,76.29
2018-03-29T05:06:40.011Z,76.81
2018-03-29T05:07:46.271Z,76.88
2018-03-29T05:08:57.164Z,76.94
2018-03-29T05:10:03.487Z,76.57
2018-03-29T05:11:12.634Z,76.41
2018-03-29T05:12:18.842Z,76.85
2018-03-29T05:13:26.377Z,76.51
2018-03-29T05:14:32.797Z,76.17
2018-03-29T05:15:39.035Z,75.98
2018-03-29T05:16:45.241Z,76.12
2018-03-29T05:17:51.495Z,76.11
2018-03-29T05:18:57.741Z,76.21
2018-03-29T05:20:03.661Z,76.09
2018-03-29T05:21:10.036Z,76.47
2018-03-29T05:22:16.299Z,76.75
2018-03-29T05:23:29.513Z,76.41
2018-03-29T05:24:39.594Z,76.47
2018-03-29T05:25:46.651Z,76.81
2018-03-29T05:26:53.780Z,77.42
2018-03-29T05:27:59.849Z,76.96
2018-03-29T05:29:06.169Z,77.03
2018-03-29T05:30:12.455Z,76.93
2018-03-29T05:31:18.697Z,76.50
2018-03-29T05:32:24.913Z,76.83
2018-03-29T05:33:31.545Z,77.01
2018-03-29T05:34:38.152Z,77.09
2018-03-29T05:35:45.450Z,76.43
2018-03-29T05:36:51.676Z,76.14
2018-03-29T05:37:57.935Z,76.42
2018-03-29T05:39:09.928Z,76.61
2018-03-29T05:40:20.078Z,76.77
2018-03-29T05:41:26.535Z,76.76
2018-03-29T05:42:32.549Z,75.89
2018-03-29T05:43:38.829Z,76.14
2018-03-29T05:44:45.095Z,76.90
2018-03-29T05:45:51.398Z,76.74
2018-03-29T05:46:57.929Z,77.01
2018-03-29T05:48:04.453Z,76.57
2018-03-29T05:49:10.709Z,76.15
2018-03-29T05:50:19.172Z,75.99
2018-03-29T05:51:25.466Z,75.81
2018-03-29T05:52:33.679Z,76.50
2018-03-29T05:53:39.951Z,76.87
2018-03-29T05:54:47.439Z,76.19
2018-03-29T05:55:54.106Z,76.43
2018-03-29T05:57:00.366Z,76.22
2018-03-29T05:58:06.702Z,76.50
2018-03-29T05:59:12.958Z,76.80
2018-03-29T06:00:19.484Z,76.12
2018-03-29T06:01:30.250Z,76.06
2018-03-29T06:02:37.515Z,75.80
2018-03-29T06:03:43.882Z,75.36
2018-03-29T06:04:55.175Z,75.75
2018-03-29T06:06:07.129Z,75.86
2018-03-29T06:07:14.668Z,75.48
2018-03-29T06:08:21.954Z,75.09
2018-03-29T06:09:29.573Z,75.46
2018-03-29T06:10:37.192Z,75.36
2018-03-29T06:11:43.597Z,76.13
2018-03-29T06:12:49.890Z,76.10
2018-03-29T06:14:01.491Z,75.84
2018-03-29T06:15:12.814Z,76.09
2018-03-29T06:16:21.105Z,76.00
2018-03-29T06:17:27.359Z,76.02
2018-03-29T06:18:33.576Z,76.25
2018-03-29T06:19:39.813Z,76.49
2018-03-29T06:20:46.063Z,75.86
2018-03-29T06:21:52.320Z,76.55
2018-03-29T06:22:58.922Z,76.15
2018-03-29T06:24:04.803Z,76.26
2018-03-29T06:25:10.927Z,76.44
2018-03-29T06:26:17.199Z,76.57
2018-03-29T06:27:23.481Z,76.49
2018-03-29T06:28:29.734Z,76.62
2018-03-29T06:29:35.990Z,76.08
2018-03-29T06:30:42.260Z,76.14
2018-03-29T06:31:55.745Z,76.50
2018-03-29T06:33:02.008Z,76.35
2018-03-29T06:34:13.132Z,76.36
2018-03-29T06:35:19.373Z,76.24
2018-03-29T06:36:25.343Z,76.51
2018-03-29T06:37:31.638Z,76.02
2018-03-29T06:38:37.925Z,76.07
2018-03-29T06:39:44.385Z,76.37
2018-03-29T06:40:50.632Z,76.34
2018-03-29T06:41:57.522Z,76.30
2018-03-29T06:43:07.351Z,75.90
2018-03-29T06:44:13.618Z,76.19
2018-03-29T06:45:19.892Z,76.19
2018-03-29T06:46:31.151Z,75.70
2018-03-29T06:47:40.184Z,75.66
2018-03-29T06:48:52.629Z,75.70
2018-03-29T06:50:01.929Z,75.79
2018-03-29T06:51:08.600Z,75.32
2018-03-29T06:52:14.972Z,75.55
2018-03-29T06:53:21.523Z,75.53
2018-03-29T06:54:30.133Z,74.96
2018-03-29T06:55:36.501Z,75.12
2018-03-29T06:56:42.866Z,75.10
2018-03-29T06:57:49.569Z,74.80
2018-03-29T06:59:00.911Z,75.24
2018-03-29T07:00:06.488Z,74.90
2018-03-29T07:01:12.486Z,74.85
2018-03-29T07:02:18.806Z,74.65
2018-03-29T07:03:25.084Z,74.44
2018-03-29T07:04:31.635Z,74.62
2018-03-29T07:05:38.169Z,74.28
2018-03-29T07:06:44.500Z,74.26
2018-03-29T07:07:50.754Z,74.23
2018-03-29T07:08:56.821Z,73.78
2018-03-29T07:10:03.212Z,74.39
2018-03-29T07:11:09.481Z,73.84
2018-03-29T07:12:16.049Z,73.74
2018-03-29T07:13:22.488Z,73.83
2018-03-29T07:14:29.210Z,73.60
2018-03-29T07:15:36.058Z,73.12
2018-03-29T07:16:43.338Z,72.95
2018-03-29T07:17:50.761Z,72.66
2018-03-29T07:18:57.263Z,71.73
2018-03-29T07:20:03.662Z,71.13
2018-03-29T07:21:11.240Z,70.98
2018-03-29T07:22:22.858Z,70.55
2018-03-29T07:23:29.265Z,70.65
2018-03-29T07:24:36.001Z,70.65
2018-03-29T07:25:43.137Z,70.85
2018-03-29T07:26:53.417Z,70.76
2018-03-29T07:28:00.304Z,70.70
2018-03-29T07:29:06.627Z,69.89
2018-03-29T07:30:13.688Z,69.71
2018-03-29T07:31:20.746Z,69.25
2018-03-29T07:32:28.154Z,69.85
2018-03-29T07:33:34.543Z,70.43
2018-03-29T07:34:44.910Z,71.23
2018-03-29T07:35:51.287Z,71.79
2018-03-29T07:36:57.651Z,71.93
2018-03-29T07:38:03.654Z,72.39
2018-03-29T07:39:10.890Z,72.81
2018-03-29T07:40:16.651Z,72.77
2018-03-29T07:41:23.053Z,73.02
2018-03-29T07:42:29.781Z,73.37
2018-03-29T07:43:37.494Z,74.02
2018-03-29T07:44:43.784Z,74.18
2018-03-29T07:45:50.106Z,74.54
2018-03-29T07:46:57.090Z,73.59
2018-03-29T07:48:03.464Z,73.09
2018-03-29T07:49:15.830Z,72.85
2018-03-29T07:50:25.000Z,73.12
2018-03-29T07:51:32.324Z,73.22
2018-03-29T07:52:43.549Z,72.86
2018-03-29T07:53:51.194Z,73.23
2018-03-29T07:54:57.629Z,73.20
2018-03-29T07:56:07.813Z,73.45
2018-03-29T07:57:14.786Z,73.43
2018-03-29T07:58:25.949Z,71.96
2018-03-29T07:59:32.316Z,70.81
2018-03-29T08:00:38.738Z,70.60
2018-03-29T08:01:44.933Z,70.08
2018-03-29T08:02:51.307Z,69.20
2018-03-29T08:04:02.876Z,69.09
2018-03-29T08:05:09.248Z,69.08
2018-03-29T08:06:15.757Z,69.19
2018-03-29T08:07:22.322Z,69.13
2018-03-29T08:08:28.724Z,69.23
2018-03-29T08:09:35.080Z,69.93
2018-03-29T08:10:41.637Z,70.26
2018-03-29T08:11:48.019Z,70.21
2018-03-29T08:12:54.394Z,70.34
2018-03-29T08:14:00.895Z,69.60
2018-03-29T08:15:06.894Z,69.32
2018-03-29T08:16:13.218Z,69.36
2018-03-29T08:17:19.566Z,68.56
2018-03-29T08:18:25.932Z,67.98
2018-03-29T08:19:32.247Z,67.97
2018-03-29T08:20:38.621Z,68.52
2018-03-29T08:21:44.955Z,67.82
2018-03-29T08:22:51.580Z,67.75
2018-03-29T08:24:04.725Z,66.97
2018-03-29T08:25:11.006Z,67.23
2018-03-29T08:26:17.476Z,66.84
2018-03-29T08:27:23.851Z,66.38
2018-03-29T08:28:30.222Z,66.47
2018-03-29T08:29:37.752Z,66.10
2018-03-29T08:30:44.095Z,66.40
2018-03-29T08:31:53.997Z,66.05
2018-03-29T08:33:05.258Z,66.06
2018-03-29T08:34:11.830Z,65.76
2018-03-29T08:35:18.154Z,65.21
2018-03-29T08:36:25.058Z,65.26
2018-03-29T08:37:31.748Z,65.05
2018-03-29T08:38:38.388Z,65.03
2018-03-29T08:39:45.759Z,65.09
2018-03-29T08:40:52.177Z,64.51
2018-03-29T08:41:58.593Z,65.04
2018-03-29T08:43:05.077Z,65.04
2018-03-29T08:44:11.397Z,64.62
2018-03-29T08:45:26.911Z,65.18
2018-03-29T08:46:33.312Z,64.95
2018-03-29T08:47:39.592Z,65.10
2018-03-29T08:48:45.777Z,65.40
2018-03-29T08:49:55.200Z,65.50
2018-03-29T08:51:01.574Z,65.73
2018-03-29T08:52:07.924Z,66.29
2018-03-29T08:53:19.824Z,66.50
2018-03-29T08:54:32.444Z,66.16
2018-03-29T08:55:39.286Z,66.21
2018-03-29T08:56:46.245Z,65.97
2018-03-29T08:57:54.323Z,65.55
2018-03-29T08:59:00.870Z,65.30
2018-03-29T09:00:07.540Z,64.12
2018-03-29T09:01:14.016Z,64.19
2018-03-29T09:02:20.385Z,64.85
2018-03-29T09:03:29.349Z,64.12
2018-03-29T09:04:42.399Z,64.30
2018-03-29T09:05:49.853Z,64.59
2018-03-29T09:07:00.739Z,64.54
2018-03-29T09:08:06.686Z,65.25
2018-03-29T09:09:13.031Z,65.46
2018-03-29T09:10:19.375Z,65.25
2018-03-29T09:11:25.761Z,65.20
2018-03-29T09:12:32.083Z,64.59
2018-03-29T09:13:38.707Z,64.27
2018-03-29T09:14:49.013Z,63.76
2018-03-29T09:16:00.800Z,63.32
2018-03-29T09:17:07.275Z,63.34
2018-03-29T09:18:13.704Z,63.88
2018-03-29T09:19:23.898Z,63.73
2018-03-29T09:20:31.199Z,63.38
2018-03-29T09:21:42.657Z,63.72
2018-03-29T09:22:49.542Z,63.66
2018-03-29T09:23:56.633Z,63.97
2018-03-29T09:25:03.057Z,63.59
2018-03-29T09:26:09.705Z,63.69
2018-03-29T09:27:20.962Z,64.17
2018-03-29T09:28:27.436Z,64.86
2018-03-29T09:29:34.139Z,64.73
2018-03-29T09:30:40.740Z,64.54
2018-03-29T09:31:49.953Z,64.64
2018-03-29T09:32:56.279Z,63.62
2018-03-29T09:34:03.403Z,63.84
2018-03-29T09:35:10.792Z,63.73
2018-03-29T09:36:17.145Z,63.79
2018-03-29T09:37:23.905Z,63.87
2018-03-29T09:38:30.335Z,63.90
2018-03-29T09:39:42.808Z,63.43
2018-03-29T09:40:50.610Z,63.15
2018-03-29T09:41:57.012Z,62.20
2018-03-29T09:43:03.490Z,61.88
2018-03-29T09:44:10.737Z,60.90
2018-03-29T09:45:18.309Z,60.92
2018-03-29T09:46:28.683Z,60.42
2018-03-29T09:47:44.051Z,60.13
2018-03-29T09:48:51.422Z,59.09
2018-03-29T09:49:58.753Z,58.56
2018-03-29T09:51:05.387Z,57.94
2018-03-29T09:52:11.809Z,57.61
2018-03-29T09:53:18.216Z,57.00
2018-03-29T09:54:25.491Z,56.98
2018-03-29T09:55:32.236Z,56.75
2018-03-29T09:56:39.511Z,56.20
2018-03-29T09:57:46.229Z,55.78
2018-03-29T09:58:53.216Z,55.80
2018-03-29T09:59:59.700Z,55.05
2018-03-29T10:01:07.739Z,55.63
2018-03-29T10:02:19.470Z,55.39
2018-03-29T10:03:29.415Z,56.29
2018-03-29T10:04:36.495Z,56.52
2018-03-29T10:05:42.557Z,54.99
2018-03-29T10:06:49.044Z,55.41
2018-03-29T10:07:55.913Z,55.95
2018-03-29T10:09:02.625Z,56.83
2018-03-29T10:10:09.669Z,56.48
2018-03-29T10:11:16.275Z,56.29
2018-03-29T10:12:24.475Z,56.46
2018-03-29T10:13:30.937Z,56.61
2018-03-29T10:14:38.275Z,56.45
2018-03-29T10:15:44.623Z,57.05
2018-03-29T10:16:51.935Z,56.84
2018-03-29T10:17:59.809Z,56.64
2018-03-29T10:19:06.403Z,56.65
2018-03-29T10:20:14.180Z,56.48
2018-03-29T10:21:23.886Z,56.90
2018-03-29T10:22:30.220Z,57.58
2018-03-29T10:23:36.634Z,57.24
2018-03-29T10:24:42.968Z,56.67
2018-03-29T10:25:49.279Z,56.09
2018-03-29T10:26:55.629Z,55.79
2018-03-29T10:28:01.924Z,55.43
2018-03-29T10:29:09.138Z,56.03
2018-03-29T10:30:16.642Z,56.36
2018-03-29T10:31:23.874Z,56.19
2018-03-29T10:32:34.304Z,56.53
2018-03-29T10:33:41.728Z,56.44
2018-03-29T10:34:48.081Z,55.93
2018-03-29T10:35:54.417Z,55.60
2018-03-29T10:37:01.992Z,55.47
2018-03-29T10:38:11.882Z,54.98
2018-03-29T10:39:28.576Z,55.20
2018-03-29T10:40:36.710Z,54.45
2018-03-29T10:41:43.437Z,54.76
2018-03-29T10:42:50.436Z,55.36
2018-03-29T10:43:59.044Z,55.99
2018-03-29T10:45:06.962Z,55.64
2018-03-29T10:46:13.951Z,55.79
2018-03-29T10:47:21.865Z,55.11
2018-03-29T10:48:29.714Z,55.33
2018-03-29T10:49:36.720Z,55.63
2018-03-29T10:50:45.098Z,55.52
2018-03-29T10:51:52.728Z,55.02
2018-03-29T10:52:59.445Z,55.48
2018-03-29T10:54:05.748Z,55.66
2018-03-29T10:55:13.244Z,55.16
2018-03-29T10:56:19.641Z,55.70
2018-03-29T10:57:26.466Z,56.04
2018-03-29T10:58:38.933Z,56.33
2018-03-29T10:59:50.018Z,55.65
2018-03-29T11:01:04.932Z,56.46
2018-03-29T11:02:10.896Z,56.97
2018-03-29T11:03:17.385Z,57.26
2018-03-29T11:04:23.859Z,57.45
2018-03-29T11:05:30.167Z,57.38
2018-03-29T11:06:36.391Z,57.14
2018-03-29T11:07:42.636Z,57.58
2018-03-29T11:08:48.922Z,57.61
2018-03-29T11:09:55.231Z,57.62
2018-03-29T11:11:06.960Z,57.14
2018-03-29T11:12:13.279Z,56.92
2018-03-29T11:13:22.513Z,56.73
2018-03-29T11:14:28.877Z,56.43
2018-03-29T11:15:35.162Z,56.71
2018-03-29T11:16:42.630Z,57.19
2018-03-29T11:17:49.323Z,57.19
2018-03-29T11:18:55.615Z,57.77
2018-03-29T11:20:01.985Z,57.24
2018-03-29T11:21:08.312Z,57.49
2018-03-29T11:22:23.951Z,57.81
2018-03-29T11:23:31.612Z,57.40
2018-03-29T11:24:38.001Z,57.98
2018-03-29T11:25:44.479Z,58.34
2018-03-29T11:26:50.796Z,57.86
2018-03-29T11:27:57.133Z,58.05
2018-03-29T11:29:03.403Z,57.77
2018-03-29T11:30:09.718Z,58.03
2018-03-29T11:31:16.018Z,58.54
2018-03-29T11:32:22.320Z,58.03
2018-03-29T11:33:28.717Z,57.99
2018-03-29T11:34:40.487Z,57.71
2018-03-29T11:35:47.517Z,57.48
2018-03-29T11:36:53.794Z,57.55
2018-03-29T11:38:04.713Z,58.38
2018-03-29T11:39:11.327Z,58.24
2018-03-29T11:40:25.780Z,58.43
2018-03-29T11:41:34.292Z,57.84
2018-03-29T11:42:40.646Z,57.88
2018-03-29T11:43:47.894Z,58.15
2018-03-29T11:44:55.086Z,58.43
2018-03-29T11:46:03.274Z,58.84
2018-03-29T11:47:09.645Z,59.07
2018-03-29T11:48:15.939Z,59.31
2018-03-29T11:49:22.507Z,59.68
2018-03-29T11:50:30.802Z,59.58
2018-03-29T11:51:37.129Z,59.71
2018-03-29T11:52:44.275Z,59.71
2018-03-29T11:53:50.504Z,59.67
2018-03-29T11:54:56.857Z,59.39
2018-03-29T11:56:04.245Z,59.58
2018-03-29T11:57:10.603Z,60.15
2018-03-29T11:58:22.040Z,59.62
2018-03-29T11:59:28.101Z,60.27
2018-03-29T12:00:34.372Z,59.91
2018-03-29T12:01:40.365Z,60.23
2018-03-29T12:02:46.611Z,59.94
2018-03-29T12:03:54.150Z,60.64
2018-03-29T12:05:09.647Z,60.03
2018-03-29T12:06:17.067Z,60.36
2018-03-29T12:07:28.403Z,59.96
2018-03-29T12:08:34.723Z,59.73
2018-03-29T12:09:41.047Z,60.27
2018-03-29T12:10:47.293Z,60.20
2018-03-29T12:11:53.553Z,59.82
2018-03-29T12:12:59.836Z,59.95
2018-03-29T12:14:06.727Z,59.47
2018-03-29T12:15:14.932Z,59.33
2018-03-29T12:16:26.319Z,59.66
2018-03-29T12:17:32.583Z,59.56
2018-03-29T12:18:38.833Z,59.00
2018-03-29T12:19:47.640Z,58.78
2018-03-29T12:20:55.894Z,58.07
2018-03-29T12:22:02.225Z,58.06
2018-03-29T12:23:12.069Z,57.66
2018-03-29T12:24:18.406Z,57.93
2018-03-29T12:25:24.875Z,58.38
2018-03-29T12:26:31.197Z,58.33
2018-03-29T12:27:42.604Z,58.95
2018-03-29T12:28:49.921Z,59.23
2018-03-29T12:29:56.219Z,58.80
2018-03-29T12:31:02.471Z,58.13
2018-03-29T12:32:10.905Z,58.44
2018-03-29T12:33:17.169Z,57.81
2018-03-29T12:34:23.445Z,57.78
2018-03-29T12:35:35.391Z,58.00
2018-03-29T12:36:41.708Z,58.21
2018-03-29T12:37:47.995Z,58.28
2018-03-29T12:38:54.426Z,58.43
2018-03-29T12:40:04.073Z,58.28
2018-03-29T12:41:10.373Z,57.92
2018-03-29T12:42:16.640Z,57.44
2018-03-29T12:43:22.922Z,57.22
2018-03-29T12:44:29.218Z,57.67
2018-03-29T12:45:36.768Z,57.65
2018-03-29T12:46:44.823Z,57.67
2018-03-29T12:47:57.343Z,57.27
2018-03-29T12:49:04.099Z,57.42
2018-03-29T12:50:10.436Z,57.44
2018-03-29T12:51:18.585Z,58.10
2018-03-29T12:52:24.861Z,58.25
2018-03-29T12:53:31.287Z,58.08
2018-03-29T12:54:48.742Z,58.33
2018-03-29T12:55:54.950Z,58.27
2018-03-29T12:57:12.164Z,58.32
2018-03-29T12:58:19.072Z,58.30
2018-03-29T12:59:25.741Z,58.64
2018-03-29T13:00:32.247Z,58.40
2018-03-29T13:01:38.548Z,58.96
2018-03-29T13:02:48.612Z,59.11
2018-03-29T13:03:54.860Z,59.52
2018-03-29T13:05:02.526Z,59.38
2018-03-29T13:06:08.752Z,59.85
2018-03-29T13:07:15.951Z,59.61
2018-03-29T13:08:22.166Z,59.76
2018-03-29T13:09:28.474Z,59.66
2018-03-29T13:10:35.695Z,59.82
2018-03-29T13:11:45.404Z,59.46
2018-03-29T13:12:51.619Z,59.58
2018-03-29T13:13:57.943Z,59.00
2018-03-29T13:15:08.159Z,58.42
2018-03-29T13:16:16.974Z,58.01
2018-03-29T13:17:29.049Z,58.16
2018-03-29T13:18:38.240Z,58.25
2018-03-29T13:19:44.271Z,57.80
2018-03-29T13:20:50.577Z,56.89
2018-03-29T13:21:57.246Z,57.11
2018-03-29T13:23:05.756Z,57.44
2018-03-29T13:24:11.772Z,57.12
2018-03-29T13:25:18.760Z,57.36
2018-03-29T13:26:25.016Z,57.76
2018-03-29T13:27:32.921Z,57.49
2018-03-29T13:28:38.944Z,57.70
2018-03-29T13:29:45.209Z,57.34
2018-03-29T13:30:51.269Z,57.41
2018-03-29T13:31:58.707Z,57.54
2018-03-29T13:33:06.479Z,56.60
2018-03-29T13:34:12.834Z,57.24
2018-03-29T13:35:23.075Z,57.33
2018-03-29T13:36:29.711Z,56.90
2018-03-29T13:37:36.212Z,56.42
2018-03-29T13:38:42.585Z,56.15
2018-03-29T13:39:48.855Z,56.22
2018-03-29T13:40:55.136Z,56.62
2018-03-29T13:42:09.352Z,56.69
2018-03-29T13:43:15.637Z,56.46
2018-03-29T13:44:24.155Z,56.80
2018-03-29T13:45:30.166Z,57.00
2018-03-29T13:46:39.029Z,56.97
2018-03-29T13:47:45.340Z,56.44
2018-03-29T13:48:51.441Z,56.68
2018-03-29T13:49:57.732Z,56.39
2018-03-29T13:51:04.028Z,56.02
2018-03-29T13:52:15.355Z,56.08
2018-03-29T13:53:25.492Z,55.35
2018-03-29T13:54:31.587Z,55.65
2018-03-29T13:55:37.906Z,55.44
2018-03-29T13:56:49.100Z,55.29
2018-03-29T13:57:59.396Z,55.84
2018-03-29T13:59:05.966Z,56.16
2018-03-29T14:00:16.403Z,56.02
2018-03-29T14:01:22.723Z,55.94
2018-03-29T14:02:29.617Z,56.47
2018-03-29T14:03:35.963Z,56.70
2018-03-29T14:04:51.217Z,56.67
2018-03-29T14:05:58.889Z,57.41
2018-03-29T14:07:05.248Z,57.72
2018-03-29T14:08:11.254Z,57.93
2018-03-29T14:09:17.248Z,58.13
2018-03-29T14:10:25.563Z,58.59
2018-03-29T14:11:32.481Z,59.53
2018-03-29T14:12:40.981Z,59.67
2018-03-29T14:13:47.236Z,60.37
2018-03-29T14:14:53.835Z,61.19
2018-03-29T14:16:00.130Z,62.46
2018-03-29T14:17:12.528Z,63.83
2018-03-29T14:18:18.849Z,65.05
2018-03-29T14:19:25.162Z,66.49
2018-03-29T14:20:31.478Z,67.87
2018-03-29T14:21:37.855Z,70.26
2018-03-29T14:22:44.189Z,70.79
2018-03-29T14:23:56.978Z,71.46
2018-03-29T14:25:03.464Z,71.01
2018-03-29T14:26:13.581Z,69.83
2018-03-29T14:27:19.476Z,69.79